Time;durP1;ratioP1;P1;durP2;ratioP2;P2;SDS_P1;SDS_P2;PMS_P1;PMS_P2;Temp;Humidity;BMP_temperature;BMP_pressure;BME280_temperature;BME280_humidity;BME280_pressure;Samples;Min_cycle;Max_cycle;Signal;HPM_P1;HPM_P2
2021/06/09 00:00:50;;;;;;;22.87;17.40;;;;;;;-139.38;100.00;63230.50;5058113;28;20572;-77
2021/06/09 00:04:15;;;;;;;21.83;15.97;;;;;;;-139.38;100.00;63230.50;5069559;28;20206;-77
2021/06/09 00:07:40;;;;;;;23.07;16.23;;;;;;;-139.38;100.00;63230.50;5076970;28;20226;-76
2021/06/09 00:11:08;;;;;;;21.43;15.27;;;;;;;-139.38;100.00;63230.50;5069906;28;20681;-76
2021/06/09 00:14:33;;;;;;;19.47;15.80;;;;;;;-139.38;100.00;63230.50;5067766;28;20203;-76
2021/06/09 00:17:59;;;;;;;20.63;17.33;;;;;;;-139.38;100.00;63230.50;5067192;28;20233;-75
2021/06/09 00:21:26;;;;;;;22.80;15.60;;;;;;;-139.38;100.00;63230.50;5059293;28;20677;-77
2021/06/09 00:24:52;;;;;;;22.33;17.13;;;;;;;-139.38;100.00;63230.50;5070007;28;20210;-76
2021/06/09 00:28:18;;;;;;;18.87;15.70;;;;;;;-139.38;100.00;63230.50;5070347;28;20300;-77
2021/06/09 00:31:44;;;;;;;23.43;15.90;;;;;;;-139.38;100.00;63230.50;5064419;28;20205;-78
2021/06/09 00:35:10;;;;;;;21.83;16.00;;;;;;;-139.38;100.00;63230.50;5067799;28;20202;-77
2021/06/09 00:38:35;;;;;;;21.70;15.53;;;;;;;-139.38;100.00;63230.50;5072509;28;20230;-75
2021/06/09 00:42:00;;;;;;;19.73;15.33;;;;;;;-139.38;100.00;63230.50;5063510;28;20730;-77
2021/06/09 00:45:27;;;;;;;20.57;15.07;;;;;;;-139.38;100.00;63230.50;5065679;28;20204;-76
2021/06/09 00:48:52;;;;;;;20.43;15.50;;;;;;;-139.38;100.00;63230.50;5067235;28;20229;-77
2021/06/09 00:52:22;;;;;;;20.47;16.20;;;;;;;-139.38;100.00;63230.50;5064591;28;20249;-76
2021/06/09 00:55:47;;;;;;;23.27;16.10;;;;;;;-139.38;100.00;63230.50;5061311;28;20250;-78
2021/06/09 00:59:12;;;;;;;20.70;16.67;;;;;;;-139.38;100.00;63230.50;5054569;28;20597;-77
2021/06/09 01:02:39;;;;;;;25.80;16.13;;;;;;;-139.38;100.00;63230.50;5066465;28;20217;-75
2021/06/09 01:06:05;;;;;;;20.97;15.97;;;;;;;-139.38;100.00;63230.50;5074892;28;20205;-77
2021/06/09 01:09:31;;;;;;;23.03;15.30;;;;;;;-139.38;100.00;63230.50;5067933;28;20225;-76
2021/06/09 01:12:57;;;;;;;20.73;16.70;;;;;;;-139.38;100.00;63230.50;5066701;28;20246;-77
2021/06/09 01:16:24;;;;;;;21.60;15.63;;;;;;;-139.38;100.00;63230.50;5067849;28;20213;-76
2021/06/09 01:19:51;;;;;;;20.70;16.53;;;;;;;-139.38;100.00;63230.50;5068319;28;20248;-77
2021/06/09 01:23:18;;;;;;;21.43;17.23;;;;;;;-139.38;100.00;63230.50;5072154;28;20206;-75
2021/06/09 01:26:44;;;;;;;22.63;16.30;;;;;;;-139.38;100.00;63230.50;5060870;28;20208;-75
2021/06/09 01:30:11;;;;;;;21.80;16.73;;;;;;;-139.38;100.00;63230.50;5080667;28;20202;-77
2021/06/09 01:33:36;;;;;;;18.97;15.00;;;;;;;-139.38;100.00;63230.50;5075821;28;20208;-77
2021/06/09 01:37:01;;;;;;;21.17;16.27;;;;;;;-139.38;100.00;63230.50;5071450;28;20212;-77
2021/06/09 01:40:28;;;;;;;17.97;14.80;;;;;;;-139.38;100.00;63230.50;5070591;28;20234;-76
2021/06/09 01:43:54;;;;;;;19.07;15.20;;;;;;;-139.38;100.00;63230.50;5066442;28;20676;-77
2021/06/09 01:47:20;;;;;;;16.70;13.77;;;;;;;-139.38;100.00;63230.50;5071641;28;20233;-77
2021/06/09 01:50:46;;;;;;;17.93;14.57;;;;;;;-139.38;100.00;63230.50;5069221;28;20203;-77
2021/06/09 01:54:11;;;;;;;15.33;13.50;;;;;;;-139.38;100.00;63230.50;5072003;28;20203;-74
2021/06/09 01:57:38;;;;;;;20.07;15.33;;;;;;;-139.38;100.00;63230.50;5069071;28;20274;-76
2021/06/09 02:01:06;;;;;;;18.83;14.57;;;;;;;-139.38;100.00;63230.50;5068483;28;20225;-76
2021/06/09 02:04:31;;;;;;;19.63;15.60;;;;;;;-139.38;100.00;63230.50;5062890;28;20202;-76
2021/06/09 02:07:57;;;;;;;19.30;14.40;;;;;;;-139.38;100.00;63230.50;5068364;28;20218;-77
2021/06/09 02:11:22;;;;;;;18.73;15.40;;;;;;;-139.38;100.00;63230.50;5074037;28;20218;-77
2021/06/09 02:14:49;;;;;;;17.77;15.37;;;;;;;-139.38;100.00;63230.50;5068014;28;20208;-76
2021/06/09 02:18:16;;;;;;;23.60;15.63;;;;;;;-139.38;100.00;63230.50;5080674;28;20292;-77
2021/06/09 02:21:42;;;;;;;21.83;16.73;;;;;;;-139.38;100.00;63230.50;5071806;28;20294;-78
2021/06/09 02:25:09;;;;;;;22.90;16.30;;;;;;;-139.38;100.00;63230.50;5064419;28;20273;-76
2021/06/09 02:28:35;;;;;;;22.07;16.30;;;;;;;-139.38;100.00;63230.50;5063999;28;20702;-76
2021/06/09 02:32:02;;;;;;;17.50;14.47;;;;;;;-139.38;100.00;63230.50;5073093;28;20203;-76
2021/06/09 02:35:27;;;;;;;21.07;16.43;;;;;;;-139.38;100.00;63230.50;5066799;28;20267;-77
2021/06/09 02:38:54;;;;;;;22.27;16.83;;;;;;;-139.38;100.00;63230.50;5066320;28;20230;-77
2021/06/09 02:42:19;;;;;;;23.33;17.70;;;;;;;-139.38;100.00;63230.50;5072109;28;20260;-76
2021/06/09 02:45:46;;;;;;;22.43;16.30;;;;;;;-139.38;100.00;63230.50;5071998;28;20302;-77
2021/06/09 02:49:15;;;;;;;22.53;17.93;;;;;;;-139.38;100.00;63230.50;5065247;28;20702;-77
2021/06/09 02:52:43;;;;;;;20.30;16.17;;;;;;;-139.38;100.00;63230.50;5066998;28;20657;-74
2021/06/09 02:56:14;;;;;;;21.67;16.80;;;;;;;-139.38;100.00;63230.50;5066527;28;20264;-76
2021/06/09 02:59:49;;;;;;;22.73;17.07;;;;;;;-139.38;100.00;63230.50;5076357;28;20284;-76
2021/06/09 03:03:21;;;;;;;24.60;18.83;;;;;;;-139.38;100.00;63230.50;5074473;28;20223;-77
2021/06/09 03:06:53;;;;;;;23.43;16.93;;;;;;;-139.38;100.00;63230.50;5074216;28;20204;-77
2021/06/09 03:10:26;;;;;;;23.27;17.43;;;;;;;-139.38;100.00;63230.50;5075548;28;20209;-77
2021/06/09 03:13:58;;;;;;;23.30;17.43;;;;;;;-139.38;100.00;63230.50;5075015;28;20207;-77
2021/06/09 03:17:28;;;;;;;23.20;16.50;;;;;;;-139.38;100.00;63230.50;5065931;28;20772;-74
2021/06/09 03:20:58;;;;;;;20.93;15.00;;;;;;;-139.38;100.00;63230.50;5073922;28;20227;-77
2021/06/09 03:24:34;;;;;;;22.63;17.13;;;;;;;-139.38;100.00;63230.50;5079528;28;20208;-77
2021/06/09 03:28:03;;;;;;;19.60;15.70;;;;;;;-139.38;100.00;63230.50;5062193;28;20229;-76
2021/06/09 03:31:32;;;;;;;22.70;16.50;;;;;;;-139.38;100.00;63230.50;5070306;28;20205;-76
2021/06/09 03:35:00;;;;;;;21.70;15.97;;;;;;;-139.38;100.00;63230.50;5070162;28;20229;-76
2021/06/09 03:38:28;;;;;;;24.30;17.87;;;;;;;-139.38;100.00;63230.50;5057473;28;20294;-76
2021/06/09 03:41:56;;;;;;;17.60;14.00;;;;;;;-139.38;100.00;63230.50;5069837;28;20980;-76
2021/06/09 03:45:24;;;;;;;21.73;16.23;;;;;;;-139.38;100.00;63230.50;5072490;28;20214;-76
2021/06/09 03:48:51;;;;;;;21.67;16.40;;;;;;;-139.38;100.00;63230.50;5069424;28;20593;-77
2021/06/09 03:52:18;;;;;;;25.33;17.70;;;;;;;-139.38;100.00;63230.50;5070351;28;20231;-75
2021/06/09 03:55:45;;;;;;;20.20;15.30;;;;;;;-139.38;100.00;63230.50;5072509;28;20214;-77
2021/06/09 03:59:11;;;;;;;20.90;17.23;;;;;;;-139.38;100.00;63230.50;5059769;28;20763;-77
2021/06/09 04:02:38;;;;;;;20.03;15.07;;;;;;;-139.38;100.00;63230.50;5070434;28;20242;-76
2021/06/09 04:06:05;;;;;;;18.30;15.17;;;;;;;-139.38;100.00;63230.50;5065845;28;20211;-76
2021/06/09 04:09:33;;;;;;;20.03;16.70;;;;;;;-139.38;100.00;63230.50;5068656;28;20719;-76
2021/06/09 04:13:01;;;;;;;21.00;16.63;;;;;;;-139.38;100.00;63230.50;5069159;28;20212;-76
2021/06/09 04:16:27;;;;;;;21.93;15.73;;;;;;;-139.38;100.00;63230.50;5069460;28;20195;-76
2021/06/09 04:19:53;;;;;;;19.53;14.83;;;;;;;-139.38;100.00;63230.50;5074683;28;20253;-76
2021/06/09 04:23:18;;;;;;;20.57;16.80;;;;;;;-139.38;100.00;63230.50;5086286;28;20583;-72
2021/06/09 04:26:45;;;;;;;17.40;13.97;;;;;;;-139.38;100.00;63230.50;5085270;28;20215;-71
2021/06/09 04:30:11;;;;;;;21.13;16.30;;;;;;;-139.38;100.00;63230.50;5088766;28;20206;-71
2021/06/09 04:34:03;;;;;;;21.60;15.37;;;;;;;-139.38;100.00;63230.50;5076813;28;20204;-71
2021/06/09 04:37:30;;;;;;;21.23;16.47;;;;;;;-139.38;100.00;63230.50;5047434;28;20202;-71
2021/06/09 04:40:56;;;;;;;20.33;16.33;;;;;;;-139.38;100.00;63230.50;5060473;28;20277;-72
2021/06/09 04:44:22;;;;;;;19.97;15.57;;;;;;;-139.38;100.00;63230.50;5067201;28;20534;-72
2021/06/09 04:47:51;;;;;;;24.93;18.37;;;;;;;-139.38;100.00;63230.50;5067781;28;20339;-75
2021/06/09 04:51:17;;;;;;;22.07;17.37;;;;;;;-139.38;100.00;63230.50;5061409;28;20222;-79
2021/06/09 04:54:42;;;;;;;19.97;16.90;;;;;;;-139.38;100.00;63230.50;5065034;28;20659;-82
2021/06/09 04:58:09;;;;;;;23.87;17.63;;;;;;;-139.38;100.00;63230.50;5068579;28;20207;-75
2021/06/09 05:01:36;;;;;;;18.47;16.03;;;;;;;-139.38;100.00;63230.50;5069903;28;20226;-75
2021/06/09 05:05:01;;;;;;;23.40;16.00;;;;;;;-139.38;100.00;63230.50;5067744;28;20212;-74
2021/06/09 05:08:27;;;;;;;18.77;15.60;;;;;;;-139.38;100.00;63230.50;5071648;28;20211;-73
2021/06/09 05:11:53;;;;;;;19.47;15.53;;;;;;;-139.38;100.00;63230.50;5061792;28;20220;-72
2021/06/09 05:15:24;;;;;;;17.03;13.83;;;;;;;-139.38;100.00;63230.50;5084849;28;20212;-75
2021/06/09 05:18:51;;;;;;;19.80;16.30;;;;;;;-139.38;100.00;63230.50;5063051;28;20207;-72
2021/06/09 05:22:21;;;;;;;22.63;17.57;;;;;;;-139.38;100.00;63230.50;5067521;28;20658;-72
2021/06/09 05:25:49;;;;;;;22.20;16.90;;;;;;;-139.38;100.00;63230.50;5067073;28;20203;-71
2021/06/09 05:29:15;;;;;;;20.33;16.83;;;;;;;-139.38;100.00;63230.50;5070268;28;20209;-75
2021/06/09 05:32:42;;;;;;;21.17;16.20;;;;;;;-139.38;100.00;63230.50;5074671;28;20228;-73
2021/06/09 05:36:08;;;;;;;21.37;16.73;;;;;;;-139.38;100.00;63230.50;5069913;28;20206;-75
2021/06/09 05:39:37;;;;;;;22.93;15.87;;;;;;;-139.38;100.00;63230.50;5063921;28;20231;-74
2021/06/09 05:43:03;;;;;;;26.17;14.87;;;;;;;-139.38;100.00;63230.50;5072760;28;20662;-74
2021/06/09 05:46:30;;;;;;;17.37;14.27;;;;;;;-139.38;100.00;63230.50;5057354;28;20218;-73
2021/06/09 05:50:07;;;;;;;19.97;15.57;;;;;;;-139.38;100.00;63230.50;5066543;28;20233;-72
2021/06/09 05:53:32;;;;;;;16.17;13.80;;;;;;;-139.38;100.00;63230.50;5063611;28;20200;-75
2021/06/09 05:56:57;;;;;;;19.37;14.30;;;;;;;-139.38;100.00;63230.50;5076866;28;20294;-73
2021/06/09 06:00:23;;;;;;;17.07;14.37;;;;;;;-139.38;100.00;63230.50;5076014;28;20263;-68
2021/06/09 06:03:49;;;;;;;18.50;14.40;;;;;;;-139.38;100.00;63230.50;5059572;28;20198;-70
2021/06/09 06:07:16;;;;;;;14.83;12.90;;;;;;;-139.38;100.00;63230.50;5067857;28;20201;-70
2021/06/09 06:10:43;;;;;;;17.40;12.40;;;;;;;-139.38;100.00;63230.50;5065189;28;20259;-69
2021/06/09 06:14:11;;;;;;;12.40;10.50;;;;;;;-139.38;100.00;63230.50;5076779;28;20217;-69
2021/06/09 06:17:37;;;;;;;13.70;10.17;;;;;;;-139.38;100.00;63230.50;5068635;28;20201;-70
2021/06/09 06:21:03;;;;;;;12.33;10.47;;;;;;;-139.38;100.00;63230.50;5071641;28;20598;-69
2021/06/09 06:24:30;;;;;;;13.67;10.10;;;;;;;-139.38;100.00;63230.50;5061612;28;20216;-70
2021/06/09 06:27:57;;;;;;;13.03;10.87;;;;;;;-139.38;100.00;63230.50;5068773;28;20197;-70
2021/06/09 06:31:23;;;;;;;14.10;10.13;;;;;;;-139.38;100.00;63230.50;5067110;28;20214;-69
2021/06/09 06:34:51;;;;;;;14.97;10.30;;;;;;;-139.38;100.00;63230.50;5076086;28;20212;-69
2021/06/09 06:38:16;;;;;;;11.97;9.70;;;;;;;-139.38;100.00;63230.50;5071153;28;20220;-68
2021/06/09 06:41:43;;;;;;;13.13;11.10;;;;;;;-139.38;100.00;63230.50;5066351;28;20693;-69
2021/06/09 06:45:09;;;;;;;13.80;10.70;;;;;;;-139.38;100.00;63230.50;5069350;28;20212;-69
2021/06/09 06:48:35;;;;;;;15.80;11.27;;;;;;;-139.38;100.00;63230.50;5078692;28;20208;-69
2021/06/09 06:52:00;;;;;;;13.33;9.97;;;;;;;-139.38;100.00;63230.50;5066236;28;20221;-69
2021/06/09 06:55:26;;;;;;;12.27;10.47;;;;;;;-139.38;100.00;63230.50;5054262;28;20209;-69
2021/06/09 06:58:54;;;;;;;14.23;10.23;;;;;;;-139.38;100.00;63230.50;5058437;28;20218;-70
2021/06/09 07:02:21;;;;;;;12.83;10.13;;;;;;;-139.38;100.00;63230.50;5072723;28;20685;-69
2021/06/09 07:05:46;;;;;;;16.13;10.80;;;;;;;-139.38;100.00;63230.50;5085741;28;20205;-69
2021/06/09 07:09:12;;;;;;;12.47;10.17;;;;;;;-139.38;100.00;63230.50;5067803;28;20666;-70
2021/06/09 07:12:38;;;;;;;13.87;10.47;;;;;;;-139.38;100.00;63230.50;5066573;28;20229;-71
2021/06/09 07:16:06;;;;;;;13.53;10.57;;;;;;;-139.38;100.00;63230.50;5085848;28;20208;-71
2021/06/09 07:19:31;;;;;;;14.33;10.17;;;;;;;-139.38;100.00;63230.50;5073476;28;20229;-71
2021/06/09 07:22:58;;;;;;;13.83;10.17;;;;;;;-139.38;100.00;63230.50;5081877;28;20233;-71
2021/06/09 07:26:24;;;;;;;13.67;10.63;;;;;;;-139.38;100.00;63230.50;5071321;28;20292;-71
2021/06/09 07:29:50;;;;;;;12.23;9.63;;;;;;;-139.38;100.00;63230.50;5066780;28;20201;-70
2021/06/09 07:33:17;;;;;;;12.70;10.43;;;;;;;-139.38;100.00;63230.50;5072709;28;20257;-70
2021/06/09 07:36:43;;;;;;;12.37;10.73;;;;;;;-139.38;100.00;63230.50;5072124;28;20256;-70
2021/06/09 07:40:12;;;;;;;12.20;10.63;;;;;;;-139.38;100.00;63230.50;5061533;28;20332;-70
2021/06/09 07:43:41;;;;;;;15.10;11.23;;;;;;;-139.38;100.00;63230.50;5072680;28;20224;-70
2021/06/09 07:47:07;;;;;;;13.60;10.47;;;;;;;-139.38;100.00;63230.50;5064723;28;20233;-70
2021/06/09 07:50:35;;;;;;;13.57;11.63;;;;;;;-139.38;100.00;63230.50;5064733;28;20203;-70
2021/06/09 07:54:02;;;;;;;14.00;11.30;;;;;;;-139.38;100.00;63230.50;5084833;28;20216;-70
2021/06/09 07:57:30;;;;;;;13.13;11.00;;;;;;;-139.38;100.00;63230.50;5071172;28;20252;-70
2021/06/09 08:00:57;;;;;;;14.17;11.33;;;;;;;-139.38;100.00;63230.50;5081485;28;20250;-70
2021/06/09 08:04:23;;;;;;;14.07;11.77;;;;;;;-139.38;100.00;63230.50;5064381;28;20680;-70
2021/06/09 08:07:49;;;;;;;12.30;11.00;;;;;;;-139.38;100.00;63230.50;5072049;28;20206;-70
2021/06/09 08:11:15;;;;;;;13.25;10.50;;;;;;;-139.38;100.00;63230.50;5068702;28;20232;-72
2021/06/09 08:14:42;;;;;;;12.57;11.27;;;;;;;-139.38;100.00;63230.50;5065464;28;20201;-70
2021/06/09 08:18:08;;;;;;;13.25;11.95;;;;;;;-139.38;100.00;63230.50;5066953;28;20224;-67
2021/06/09 08:21:35;;;;;;;14.68;11.07;;;;;;;-139.38;100.00;63230.50;5058523;28;20291;-67
2021/06/09 08:25:03;;;;;;;13.10;11.65;;;;;;;-139.38;100.00;63230.50;5065797;28;20208;-70
2021/06/09 08:28:29;;;;;;;13.63;12.07;;;;;;;-139.38;100.00;63230.50;5065040;28;20203;-70
2021/06/09 08:31:54;;;;;;;13.37;11.67;;;;;;;-139.38;100.00;63230.50;5068520;28;20309;-71
2021/06/09 08:35:19;;;;;;;14.10;12.47;;;;;;;-139.38;100.00;63230.50;5068096;28;20207;-71
2021/06/09 08:38:45;;;;;;;14.97;12.13;;;;;;;-139.38;100.00;63230.50;5070483;28;20209;-78
2021/06/09 08:42:12;;;;;;;14.97;12.67;;;;;;;-139.38;100.00;63230.50;5075116;28;20247;-79
2021/06/09 08:45:38;;;;;;;16.40;12.55;;;;;;;-139.38;100.00;63230.50;5076695;28;20716;-77
2021/06/09 08:49:04;;;;;;;13.25;11.65;;;;;;;-139.38;100.00;63230.50;5067427;28;20204;-77
2021/06/09 08:52:32;;;;;;;14.73;11.93;;;;;;;-139.38;100.00;63230.50;5063983;28;20219;-77
2021/06/09 08:55:57;;;;;;;13.55;12.02;;;;;;;-139.38;100.00;63230.50;5067672;28;20734;-78
2021/06/09 08:59:24;;;;;;;14.75;10.70;;;;;;;-139.38;100.00;63230.50;5083138;28;20199;-80
2021/06/09 09:02:51;;;;;;;12.85;11.25;;;;;;;-139.38;100.00;63230.50;5072162;28;20228;-78
2021/06/09 09:06:17;;;;;;;13.27;11.15;;;;;;;-139.38;100.00;63230.50;5073167;28;20403;-79
2021/06/09 09:09:42;;;;;;;15.45;11.50;;;;;;;-139.38;100.00;63230.50;5072767;28;20223;-79
2021/06/09 09:13:08;;;;;;;15.27;11.65;;;;;;;-139.38;100.00;63230.50;5073500;28;20201;-78
2021/06/09 09:16:35;;;;;;;13.93;10.85;;;;;;;-139.38;100.00;63230.50;5084290;28;20209;-79
2021/06/09 09:20:05;;;;;;;11.80;10.57;;;;;;;-139.38;100.00;63230.50;5071486;28;20205;-78
2021/06/09 09:23:32;;;;;;;15.90;11.90;;;;;;;-139.38;100.00;63230.50;5064229;28;20575;-81
2021/06/09 09:27:01;;;;;;;17.70;13.77;;;;;;;-139.38;100.00;63230.50;5063589;28;20198;-76
2021/06/09 09:30:26;;;;;;;19.95;13.38;;;;;;;-139.38;100.00;63230.50;5079669;28;20196;-76
2021/06/09 09:33:57;;;;;;;15.32;11.82;;;;;;;-139.38;100.00;63230.50;5066658;28;20197;-76
2021/06/09 09:37:24;;;;;;;19.55;16.48;;;;;;;-139.38;100.00;63230.50;5070497;28;20577;-74
2021/06/09 09:41:07;;;;;;;18.90;14.82;;;;;;;-139.38;100.00;63230.50;5071376;28;20197;-76
2021/06/09 09:44:42;;;;;;;15.20;12.45;;;;;;;-139.38;100.00;63230.50;5073238;28;20248;-75
2021/06/09 09:48:16;;;;;;;16.08;12.23;;;;;;;-139.38;100.00;63230.50;5067317;28;20542;-75
2021/06/09 09:51:56;;;;;;;14.93;11.85;;;;;;;-139.38;100.00;63230.50;5059999;28;20268;-73
2021/06/09 09:55:22;;;;;;;14.52;11.52;;;;;;;-139.38;100.00;63230.50;5070258;28;20959;-74
2021/06/09 09:58:51;;;;;;;14.55;11.40;;;;;;;-139.38;100.00;63230.50;5070846;28;20202;-74
2021/06/09 10:02:17;;;;;;;15.57;11.82;;;;;;;-139.38;100.00;63230.50;5075087;28;20225;-73
2021/06/09 10:05:44;;;;;;;17.48;13.80;;;;;;;-139.38;100.00;63230.50;5074376;28;20259;-75
2021/06/09 10:09:12;;;;;;;14.35;12.05;;;;;;;-139.38;100.00;63230.50;5069566;28;20197;-74
2021/06/09 10:12:38;;;;;;;14.35;11.90;;;;;;;-139.38;100.00;63230.50;5086557;28;20225;-75
2021/06/09 10:16:07;;;;;;;14.75;12.20;;;;;;;-139.38;100.00;63230.50;5071351;28;20205;-74
2021/06/09 10:19:33;;;;;;;15.05;12.48;;;;;;;-139.38;100.00;63230.50;5074760;28;20559;-74
2021/06/09 10:23:02;;;;;;;14.43;11.93;;;;;;;-139.38;100.00;63230.50;5068477;28;20263;-73
2021/06/09 10:26:27;;;;;;;14.27;12.88;;;;;;;-139.38;100.00;63230.50;5063630;28;20197;-74
2021/06/09 10:29:57;;;;;;;13.45;11.48;;;;;;;-139.38;100.00;63230.50;5078641;28;20209;-74
2021/06/09 10:33:22;;;;;;;16.30;13.95;;;;;;;-139.38;100.00;63230.50;5072998;28;20769;-72
2021/06/09 10:36:48;;;;;;;15.45;13.65;;;;;;;-139.38;100.00;63230.50;5070844;28;20604;-74
2021/06/09 10:40:16;;;;;;;17.50;15.25;;;;;;;-139.38;100.00;63230.50;5066633;28;20216;-75
2021/06/09 10:43:42;;;;;;;16.77;14.32;;;;;;;-139.38;100.00;63230.50;5070327;28;20225;-75
2021/06/09 10:47:10;;;;;;;17.23;13.48;;;;;;;-139.38;100.00;63230.50;5069646;28;20201;-74
2021/06/09 10:50:36;;;;;;;17.33;13.52;;;;;;;-139.38;100.00;63230.50;5067148;28;20560;-73
2021/06/09 10:54:03;;;;;;;22.88;16.02;;;;;;;-139.38;100.00;63230.50;5062680;28;20256;-75
2021/06/09 10:57:30;;;;;;;18.55;14.82;;;;;;;-139.38;100.00;63230.50;5070387;28;20207;-74
2021/06/09 11:00:57;;;;;;;19.10;15.18;;;;;;;-139.38;100.00;63230.50;5067961;28;20217;-75
2021/06/09 11:04:23;;;;;;;16.20;13.98;;;;;;;-139.38;100.00;63230.50;5060975;28;20233;-74
2021/06/09 11:07:50;;;;;;;25.25;15.38;;;;;;;-139.38;100.00;63230.50;5066107;28;20205;-75
2021/06/09 11:11:37;;;;;;;17.02;12.93;;;;;;;-139.38;100.00;63230.50;5079091;28;20229;-82
2021/06/09 11:15:17;;;;;;;16.80;13.68;;;;;;;-139.38;100.00;63230.50;5078490;28;20209;-81
2021/06/09 11:18:45;;;;;;;18.95;13.80;;;;;;;-139.38;100.00;63230.50;5071210;28;20201;-77
2021/06/09 11:22:16;;;;;;;16.48;13.20;;;;;;;-139.38;100.00;63230.50;5073557;28;20237;-75
2021/06/09 11:26:02;;;;;;;13.50;11.57;;;;;;;-139.38;100.00;63230.50;5067794;28;20204;-71
2021/06/09 11:29:36;;;;;;;13.65;11.60;;;;;;;-139.38;100.00;63230.50;5067003;28;20511;-72
2021/06/09 11:33:29;;;;;;;11.73;10.52;;;;;;;-139.38;100.00;63230.50;5064490;28;20643;-70
2021/06/09 11:36:55;;;;;;;11.45;9.35;;;;;;;-139.38;100.00;63230.50;5063742;28;20212;-72
2021/06/09 11:40:24;;;;;;;10.75;9.63;;;;;;;-139.38;100.00;63230.50;5068869;28;20215;-70
2021/06/09 11:44:06;;;;;;;10.93;9.43;;;;;;;-139.38;100.00;63230.50;5065127;28;20243;-70
2021/06/09 11:47:34;;;;;;;11.48;10.07;;;;;;;-139.38;100.00;63230.50;5059188;28;20204;-70
2021/06/09 11:51:18;;;;;;;12.55;10.63;;;;;;;-139.38;100.00;63230.50;5070119;28;20259;-68
2021/06/09 11:54:45;;;;;;;12.43;9.68;;;;;;;-139.38;100.00;63230.50;5070666;28;20211;-69
2021/06/09 11:58:15;;;;;;;10.70;9.57;;;;;;;-139.38;100.00;63230.50;5060728;28;20661;-69
2021/06/09 12:01:59;;;;;;;10.90;9.75;;;;;;;-139.38;100.00;63230.50;5072710;28;20316;-69
2021/06/09 12:05:24;;;;;;;10.93;9.73;;;;;;;-139.38;100.00;63230.50;5090853;28;20238;-69
2021/06/09 12:08:51;;;;;;;10.50;9.00;;;;;;;-139.38;100.00;63230.50;5075754;28;20234;-71
2021/06/09 12:12:17;;;;;;;11.73;9.18;;;;;;;-139.38;100.00;63230.50;5061987;28;20278;-68
2021/06/09 12:15:43;;;;;;;15.90;9.70;;;;;;;-139.38;100.00;63230.50;5072748;28;20204;-70
2021/06/09 12:19:20;;;;;;;11.48;10.27;;;;;;;-139.38;100.00;63230.50;5084694;28;20196;-70
2021/06/09 12:22:46;;;;;;;13.77;11.50;;;;;;;-139.38;100.00;63230.50;5056330;28;20238;-71
2021/06/09 12:26:13;;;;;;;13.07;10.80;;;;;;;-139.38;100.00;63230.50;5065689;28;20209;-70
2021/06/09 12:29:39;;;;;;;13.55;10.95;;;;;;;-139.38;100.00;63230.50;5066320;28;20201;-69
2021/06/09 12:33:16;;;;;;;12.18;10.45;;;;;;;-139.38;100.00;63230.50;5083141;28;20308;-69
2021/06/09 12:36:42;;;;;;;10.85;9.75;;;;;;;-139.38;100.00;63230.50;5066964;28;20212;-68
2021/06/09 12:40:13;;;;;;;9.85;8.18;;;;;;;-139.38;100.00;63230.50;5072828;28;20217;-69
2021/06/09 12:43:40;;;;;;;10.45;8.05;;;;;;;-139.38;100.00;63230.50;5064092;28;20202;-68
2021/06/09 12:47:11;;;;;;;10.27;8.20;;;;;;;-139.38;100.00;63230.50;5063754;28;20205;-71
2021/06/09 12:50:41;;;;;;;9.52;6.85;;;;;;;-139.38;100.00;63230.50;5058632;28;20827;-68
2021/06/09 12:54:15;;;;;;;9.93;6.88;;;;;;;-139.38;100.00;63230.50;5068636;28;20283;-68
2021/06/09 12:57:54;;;;;;;6.05;5.55;;;;;;;-139.38;100.00;63230.50;5065196;28;20237;-69
2021/06/09 13:01:43;;;;;;;8.82;7.05;;;;;;;-139.38;100.00;63230.50;5070366;28;20257;-71
2021/06/09 13:05:14;;;;;;;8.00;7.07;;;;;;;-139.38;100.00;63230.50;5070317;28;20698;-69
2021/06/09 13:08:41;;;;;;;9.10;6.07;;;;;;;-139.38;100.00;63230.50;5061098;28;20205;-69
2021/06/09 13:12:11;;;;;;;6.00;5.40;;;;;;;-139.38;100.00;63230.50;5058206;28;20709;-70
2021/06/09 13:15:38;;;;;;;7.43;5.22;;;;;;;-139.38;100.00;63230.50;5082493;28;20194;-69
2021/06/09 13:19:08;;;;;;;12.32;5.30;;;;;;;-139.38;100.00;63230.50;5064543;28;20627;-69
2021/06/09 13:22:48;;;;;;;7.07;6.18;;;;;;;-139.38;100.00;63230.50;5058615;28;20608;-69
2021/06/09 13:26:16;;;;;;;10.70;6.10;;;;;;;-139.38;100.00;63230.50;5067299;28;20405;-69
2021/06/09 13:29:48;;;;;;;7.93;5.75;;;;;;;-139.38;100.00;63230.50;5069748;28;20686;-69
2021/06/09 13:33:21;;;;;;;6.97;5.82;;;;;;;-139.38;100.00;63230.50;5061048;28;20227;-70
2021/06/09 13:36:53;;;;;;;6.28;5.65;;;;;;;-139.38;100.00;63230.50;5076462;28;20712;-71
2021/06/09 13:40:25;;;;;;;6.95;5.05;;;;;;;-139.38;100.00;63230.50;5059921;28;20672;-70
2021/06/09 13:43:59;;;;;;;4.75;4.35;;;;;;;-139.38;100.00;63230.50;5064789;28;20198;-69
2021/06/09 13:47:26;;;;;;;4.93;4.43;;;;;;;-139.38;100.00;63230.50;5069184;28;20201;-69
2021/06/09 13:51:05;;;;;;;4.35;3.78;;;;;;;-139.38;100.00;63230.50;5074444;28;20675;-69
2021/06/09 13:54:53;;;;;;;5.10;4.35;;;;;;;-139.38;100.00;63230.50;5059482;28;20319;-68
2021/06/09 13:58:28;;;;;;;4.63;4.20;;;;;;;-139.38;100.00;63230.50;5068018;28;20295;-68
2021/06/09 14:02:14;;;;;;;7.85;4.22;;;;;;;-139.38;100.00;63230.50;5069667;28;20479;-69
2021/06/09 14:05:51;;;;;;;12.82;5.20;;;;;;;-139.38;100.00;63230.50;5073381;28;20219;-68
2021/06/09 14:09:18;;;;;;;9.77;5.15;;;;;;;-139.38;100.00;63230.50;5072979;28;20516;-68
2021/06/09 14:13:01;;;;;;;10.40;5.97;;;;;;;-139.38;100.00;63230.50;5067475;28;20641;-69
2021/06/09 14:16:31;;;;;;;7.13;5.90;;;;;;;-139.38;100.00;63230.50;5071758;28;20208;-71
2021/06/09 14:20:08;;;;;;;8.87;6.03;;;;;;;-139.38;100.00;63230.50;5069521;28;20546;-70
2021/06/09 14:23:42;;;;;;;8.60;6.00;;;;;;;-139.38;100.00;63230.50;5064503;28;20203;-70
2021/06/09 14:27:26;;;;;;;6.23;5.53;;;;;;;-139.38;100.00;63230.50;5078145;28;20200;-70
2021/06/09 14:31:21;;;;;;;8.93;5.40;;;;;;;-139.38;100.00;63230.50;5066222;28;20661;-71
2021/06/09 14:35:25;;;;;;;7.20;5.22;;;;;;;-139.38;100.00;63230.50;5061172;28;20217;-70
2021/06/09 14:39:04;;;;;;;7.82;5.25;;;;;;;-139.38;100.00;63230.50;5056515;28;20202;-70
2021/06/09 14:42:33;;;;;;;7.82;5.13;;;;;;;-139.38;100.00;63230.50;5064616;28;20282;-67
2021/06/09 14:45:59;;;;;;;6.05;4.80;;;;;;;-139.38;100.00;63230.50;5066735;28;20251;-70
2021/06/09 14:49:32;;;;;;;5.78;4.97;;;;;;;-139.38;100.00;63230.50;5064908;28;20580;-70
2021/06/09 14:53:07;;;;;;;13.07;5.47;;;;;;;-139.38;100.00;63230.50;5081485;28;20307;-69
2021/06/09 14:56:48;;;;;;;7.15;4.78;;;;;;;-139.38;100.00;63230.50;5071469;28;20197;-69
2021/06/09 15:00:19;;;;;;;4.65;4.03;;;;;;;-139.38;100.00;63230.50;5061663;28;20210;-78
2021/06/09 15:03:49;;;;;;;11.38;4.82;;;;;;;-139.38;100.00;63230.50;5084347;28;20243;-77
2021/06/09 15:07:15;;;;;;;6.35;4.18;;;;;;;-139.38;100.00;63230.50;5070116;28;20243;-75
2021/06/09 15:10:43;;;;;;;6.68;5.28;;;;;;;-139.38;100.00;63230.50;5075232;28;20210;-74
2021/06/09 15:14:23;;;;;;;6.93;5.45;;;;;;;-139.38;100.00;63230.50;5073964;28;20201;-75
2021/06/09 15:17:53;;;;;;;12.40;6.32;;;;;;;-139.38;100.00;63230.50;5069523;28;20208;-76
2021/06/09 15:21:19;;;;;;;7.50;6.03;;;;;;;-139.38;100.00;63230.50;5069290;28;20231;-74
2021/06/09 15:24:54;;;;;;;5.97;5.10;;;;;;;-139.38;100.00;63230.50;5064331;28;20217;-74
2021/06/09 15:28:20;;;;;;;9.60;6.20;;;;;;;-139.38;100.00;63230.50;5066189;28;20240;-74
2021/06/09 15:31:50;;;;;;;7.70;6.20;;;;;;;-139.38;100.00;63230.50;5066099;28;20220;-76